Time;durP1;ratioP1;P1;durP2;ratioP2;P2;SDS_P1;SDS_P2;PMS_P1;PMS_P2;Temp;Humidity;BMP_temperature;BMP_pressure;BME280_temperature;BME280_humidity;BME280_pressure;Samples;Min_cycle;Max_cycle;Signal;HPM_P1;HPM_P2
2021/12/29 00:01:50;;;;;;;22.33;10.15;;;6.20;99.90;;;;;;4993519;28;20054;-76
2021/12/29 00:04:16;;;;;;;18.25;9.60;;;6.20;99.90;;;;;;4993497;28;20050;-77
2021/12/29 00:06:43;;;;;;;17.67;9.48;;;6.20;99.90;;;;;;4993728;28;20050;-79
2021/12/29 00:09:08;;;;;;;15.73;8.25;;;6.20;99.90;;;;;;4977623;28;20038;-76
2021/12/29 00:11:40;;;;;;;13.68;7.90;;;6.20;99.90;;;;;;4969370;28;20560;-76
2021/12/29 00:14:07;;;;;;;16.80;8.20;;;6.30;99.90;;;;;;4976774;28;20489;-76
2021/12/29 00:16:35;;;;;;;26.58;9.40;;;6.20;99.90;;;;;;4993338;28;20058;-79
2021/12/29 00:19:07;;;;;;;20.77;10.13;;;6.10;99.90;;;;;;4979903;28;20165;-76
2021/12/29 00:21:34;;;;;;;19.02;9.32;;;6.20;99.90;;;;;;4996298;28;20464;-76
2021/12/29 00:24:01;;;;;;;21.23;9.70;;;6.20;99.90;;;;;;4996753;28;20045;-77
2021/12/29 00:26:28;;;;;;;19.33;9.52;;;6.20;99.90;;;;;;4980052;28;20037;-80
2021/12/29 00:28:53;;;;;;;21.58;9.20;;;6.10;99.90;;;;;;4980455;28;20081;-77
2021/12/29 00:31:20;;;;;;;22.58;9.10;;;6.20;99.90;;;;;;4980645;28;20046;-82
2021/12/29 00:33:46;;;;;;;25.10;10.50;;;6.20;99.90;;;;;;5014144;28;20065;-79
2021/12/29 00:36:12;;;;;;;27.42;10.52;;;8.30;99.90;;;;;;4997106;28;20058;-77
2021/12/29 00:38:37;;;;;;;27.67;10.23;;;6.20;99.90;;;;;;4980327;28;20041;-77
2021/12/29 00:41:04;;;;;;;32.53;11.57;;;6.20;99.90;;;;;;4999700;28;20041;-77
2021/12/29 00:43:30;;;;;;;29.33;11.02;;;6.20;99.90;;;;;;4996546;28;20041;-76
2021/12/29 00:45:55;;;;;;;24.67;10.85;;;6.00;99.90;;;;;;4996833;28;20049;-82
2021/12/29 00:48:23;;;;;;;50.67;13.40;;;6.30;99.90;;;;;;4995771;28;20100;-80
2021/12/29 00:50:49;;;;;;;35.75;12.73;;;6.30;99.90;;;;;;4980080;28;20069;-77
2021/12/29 00:53:16;;;;;;;36.88;12.65;;;6.30;99.90;;;;;;5013891;28;20371;-76
2021/12/29 00:55:42;;;;;;;42.45;13.68;;;6.30;99.90;;;;;;4979222;28;20132;-77
2021/12/29 00:58:08;;;;;;;46.75;13.50;;;6.30;99.90;;;;;;4996123;28;20081;-76
2021/12/29 01:00:40;;;;;;;61.47;15.38;;;6.40;99.90;;;;;;4995028;28;20046;-77
2021/12/29 01:03:08;;;;;;;57.60;14.80;;;6.40;99.90;;;;;;4995122;28;20046;-77
2021/12/29 01:05:33;;;;;;;53.17;15.63;;;6.40;99.90;;;;;;4993006;28;21603;-77
2021/12/29 01:07:59;;;;;;;54.72;15.48;;;6.40;99.90;;;;;;4993359;28;20173;-77
2021/12/29 01:10:26;;;;;;;66.00;16.85;;;6.40;99.90;;;;;;4994438;28;20038;-81
2021/12/29 01:13:00;;;;;;;80.22;19.38;;;6.40;99.90;;;;;;4996042;28;20055;-80
2021/12/29 01:15:31;;;;;;;;;;;6.40;99.90;;;;;;4979294;28;20517;-81
2021/12/29 01:17:59;;;;;;;65.65;16.75;;;6.40;99.90;;;;;;4978814;28;19922;-81
2021/12/29 01:20:26;;;;;;;71.72;17.50;;;6.50;99.90;;;;;;4994483;28;20073;-81
2021/12/29 01:22:52;;;;;;;86.03;20.23;;;6.50;99.90;;;;;;4995082;28;20107;-76
2021/12/29 01:25:18;;;;;;;78.00;19.48;;;6.50;99.90;;;;;;4979468;28;20041;-76
2021/12/29 01:27:43;;;;;;;63.17;18.20;;;6.50;99.90;;;;;;4979314;28;20054;-77
2021/12/29 01:30:11;;;;;;;80.65;18.92;;;6.50;99.90;;;;;;4993064;28;20160;-81
2021/12/29 01:32:38;;;;;;;78.53;18.60;;;6.60;99.90;;;;;;4995516;28;20368;-76
2021/12/29 01:35:06;;;;;;;90.00;20.92;;;6.60;99.90;;;;;;5013047;28;20088;-81
2021/12/29 01:37:31;;;;;;;73.22;18.48;;;6.60;99.90;;;;;;4993950;28;20050;-79
2021/12/29 01:39:57;;;;;;;79.22;18.98;;;6.60;99.90;;;;;;4978936;28;20045;-81
2021/12/29 01:42:22;;;;;;;70.93;19.73;;;6.60;99.90;;;;;;4995260;28;20044;-76
2021/12/29 01:44:48;;;;;;;58.72;19.58;;;6.60;99.90;;;;;;4976309;28;20124;-77
2021/12/29 01:47:25;;;;;;;70.88;20.23;;;6.60;99.90;;;;;;4995495;28;20101;-76
2021/12/29 01:49:50;;;;;;;64.68;20.55;;;6.60;99.90;;;;;;4995205;28;20057;-78
2021/12/29 01:52:21;;;;;;;50.47;18.20;;;6.60;99.90;;;;;;4978943;28;20494;-79
2021/12/29 01:54:47;;;;;;;67.32;19.80;;;6.70;99.90;;;;;;4995586;28;20061;-81
2021/12/29 01:57:13;;;;;;;68.63;18.73;;;6.40;99.90;;;;;;4995283;28;20049;-81
2021/12/29 01:59:38;;;;;;;71.55;21.52;;;6.60;99.90;;;;;;4977853;28;20129;-77
2021/12/29 02:02:05;;;;;;;90.45;21.60;;;6.60;99.90;;;;;;5012376;28;20046;-82
2021/12/29 02:04:30;;;;;;;67.97;19.80;;;6.60;99.90;;;;;;5012937;28;20529;-76
2021/12/29 02:06:56;;;;;;;81.50;20.88;;;6.70;99.90;;;;;;5011925;28;20132;-77
2021/12/29 02:09:21;;;;;;;87.85;20.90;;;6.60;99.90;;;;;;4994859;28;20058;-76
2021/12/29 02:11:47;;;;;;;59.88;17.75;;;6.60;99.90;;;;;;4994990;28;20045;-80
2021/12/29 02:14:14;;;;;;;61.13;18.17;;;6.60;99.90;;;;;;5011730;28;20394;-81
2021/12/29 02:16:40;;;;;;;65.35;17.80;;;6.30;99.90;;;;;;4977859;28;20096;-82
2021/12/29 02:19:10;;;;;;;55.55;15.93;;;6.60;99.90;;;;;;5011338;28;20406;-81
2021/12/29 02:21:37;;;;;;;40.00;14.10;;;6.60;99.90;;;;;;5011597;28;20042;-78
2021/12/29 02:24:36;;;;;;;40.53;13.60;;;6.70;99.90;;;;;;5011725;28;20050;-78
2021/12/29 02:26:51;;;;;;;39.88;12.57;;;6.70;99.90;;;;;;4988569;28;20389;-81
2021/12/29 02:29:18;;;;;;;38.05;11.70;;;6.70;99.90;;;;;;4994520;28;20050;-77
2021/12/29 02:31:45;;;;;;;37.17;12.38;;;6.70;99.90;;;;;;5012043;28;20045;-82
2021/12/29 02:34:13;;;;;;;35.63;12.23;;;6.80;99.90;;;;;;5011402;28;20041;-81
2021/12/29 02:36:43;;;;;;;33.95;11.02;;;6.80;99.90;;;;;;5019228;28;20057;-76
2021/12/29 02:39:19;;;;;;;35.05;11.13;;;6.80;99.90;;;;;;5011498;28;20038;-77
2021/12/29 02:41:54;;;;;;;40.45;11.35;;;6.80;99.90;;;;;;4992813;28;20037;-81
2021/12/29 02:44:26;;;;;;;36.17;11.50;;;6.80;99.90;;;;;;4994100;28;20398;-81
2021/12/29 02:46:53;;;;;;;40.20;11.43;;;6.70;99.90;;;;;;4994219;28;20052;-80
2021/12/29 02:49:19;;;;;;;40.08;11.93;;;6.80;99.90;;;;;;4993554;28;20042;-76
2021/12/29 02:51:45;;;;;;;37.83;12.57;;;6.80;99.90;;;;;;4994366;28;20045;-76
2021/12/29 02:54:12;;;;;;;42.63;12.60;;;6.80;99.90;;;;;;4993813;28;20038;-82
2021/12/29 02:56:38;;;;;;;36.35;11.27;;;6.90;99.90;;;;;;5011496;28;20064;-76
2021/12/29 02:59:04;;;;;;;36.58;12.10;;;6.90;99.90;;;;;;4993635;28;20038;-77
2021/12/29 03:01:30;;;;;;;45.72;13.73;;;6.90;99.90;;;;;;4992883;28;20430;-77
2021/12/29 03:03:57;;;;;;;35.65;12.88;;;6.90;99.90;;;;;;4994159;28;20056;-79
2021/12/29 03:06:23;;;;;;;47.53;14.52;;;6.90;99.90;;;;;;5011445;28;20049;-77
2021/12/29 03:08:49;;;;;;;44.30;14.88;;;7.00;99.90;;;;;;4993468;28;20029;-77
2021/12/29 03:11:15;;;;;;;37.65;14.40;;;7.00;99.90;;;;;;4993876;28;20560;-82
2021/12/29 03:13:41;;;;;;;41.97;15.40;;;7.00;99.90;;;;;;4993536;28;20066;-79
2021/12/29 03:16:07;;;;;;;45.47;14.75;;;7.00;99.90;;;;;;4992554;28;20104;-79
2021/12/29 03:18:33;;;;;;;46.67;14.98;;;7.00;99.90;;;;;;4993162;28;20517;-76
2021/12/29 03:20:59;;;;;;;51.55;17.42;;;7.00;99.90;;;;;;4976687;28;20041;-76
2021/12/29 03:23:25;;;;;;;44.28;16.92;;;7.60;99.90;;;;;;4993294;28;21033;-82
2021/12/29 03:25:52;;;;;;;50.58;16.33;;;7.00;99.90;;;;;;4993114;28;20045;-80
2021/12/29 03:28:20;;;;;;;42.53;16.15;;;7.10;99.90;;;;;;5010716;28;20521;-79
2021/12/29 03:30:50;;;;;;;46.25;18.00;;;7.10;99.90;;;;;;4993392;28;20038;-79
2021/12/29 03:33:15;;;;;;;46.28;17.98;;;7.10;99.90;;;;;;4993795;28;20398;-77
2021/12/29 03:35:47;;;;;;;46.08;18.70;;;7.10;99.90;;;;;;4993699;28;20033;-80
2021/12/29 03:38:16;;;;;;;48.65;19.05;;;7.10;99.90;;;;;;4976536;28;20045;-76
2021/12/29 03:40:42;;;;;;;48.90;17.90;;;7.10;99.90;;;;;;4986349;28;20096;-80
2021/12/29 03:43:10;;;;;;;56.92;19.60;;;7.10;99.90;;;;;;4993252;28;20494;-82
2021/12/29 03:45:37;;;;;;;43.10;18.05;;;7.20;99.90;;;;;;4992778;28;20474;-76
2021/12/29 03:48:04;;;;;;;46.60;18.73;;;7.20;99.90;;;;;;4993750;28;20038;-79
2021/12/29 03:50:30;;;;;;;43.25;18.00;;;7.20;99.90;;;;;;4992947;28;20042;-77
2021/12/29 03:52:56;;;;;;;42.22;19.25;;;7.20;99.90;;;;;;4996484;28;20533;-76
2021/12/29 03:55:22;;;;;;;45.80;18.10;;;7.20;99.90;;;;;;5015119;28;20045;-77
2021/12/29 03:57:47;;;;;;;40.92;17.48;;;7.20;99.90;;;;;;4997180;28;20411;-78
2021/12/29 04:00:16;;;;;;;36.38;17.70;;;7.20;99.90;;;;;;4997501;28;20045;-78
2021/12/29 04:02:43;;;;;;;35.65;17.15;;;7.20;99.90;;;;;;5007316;28;20405;-77
2021/12/29 04:05:12;;;;;;;37.92;17.45;;;7.20;99.90;;;;;;5014256;28;20093;-77
2021/12/29 04:07:38;;;;;;;33.50;15.60;;;7.20;99.90;;;;;;4997239;28;20056;-81
2021/12/29 04:10:05;;;;;;;36.00;15.15;;;7.30;99.90;;;;;;5014507;28;20046;-76
2021/12/29 04:12:31;;;;;;;49.72;19.23;;;7.20;99.90;;;;;;4996435;28;20075;-81
2021/12/29 04:14:57;;;;;;;34.13;16.70;;;7.20;99.90;;;;;;4993953;28;20105;-78
2021/12/29 04:17:29;;;;;;;42.40;17.67;;;7.20;99.90;;;;;;4977841;28;20042;-77
2021/12/29 04:22:39;;;;;;;37.88;17.20;;;7.20;99.90;;;;;;4993407;28;20039;-81
2021/12/29 04:25:05;;;;;;;37.15;16.75;;;7.20;99.90;;;;;;4994328;28;20038;-77
2021/12/29 04:27:31;;;;;;;32.75;15.85;;;7.20;99.90;;;;;;4977247;28;20064;-77
2021/12/29 04:29:57;;;;;;;34.28;16.90;;;7.20;99.90;;;;;;4993437;28;20550;-76
2021/12/29 04:32:23;;;;;;;31.92;15.90;;;7.20;99.90;;;;;;4977659;28;20112;-76
2021/12/29 04:34:49;;;;;;;29.42;15.70;;;7.20;99.90;;;;;;4993374;28;20480;-76
2021/12/29 04:37:14;;;;;;;30.13;15.82;;;7.20;99.90;;;;;;4994761;28;20077;-78
2021/12/29 04:39:40;;;;;;;29.75;15.98;;;7.20;99.90;;;;;;4993992;28;20042;-81
2021/12/29 04:42:05;;;;;;;35.70;16.42;;;7.20;99.90;;;;;;4993441;28;20049;-77
2021/12/29 04:44:31;;;;;;;28.42;16.02;;;7.20;99.90;;;;;;4993608;28;20039;-76
2021/12/29 04:46:57;;;;;;;39.97;17.77;;;8.50;99.90;;;;;;4976582;28;20046;-78
2021/12/29 04:49:27;;;;;;;37.80;18.27;;;7.20;99.90;;;;;;4993140;28;20057;-81
2021/12/29 04:52:03;;;;;;;30.73;16.05;;;7.20;99.90;;;;;;4993718;28;20043;-79
2021/12/29 04:54:30;;;;;;;26.15;15.60;;;7.20;99.90;;;;;;4992639;28;20403;-79
2021/12/29 04:56:55;;;;;;;24.38;15.63;;;7.20;99.90;;;;;;4993353;28;20160;-77
2021/12/29 04:59:22;;;;;;;36.50;16.15;;;7.20;99.90;;;;;;4993547;28;20575;-82
2021/12/29 05:01:48;;;;;;;35.33;17.15;;;7.20;99.90;;;;;;4992180;28;20050;-78
2021/12/29 05:04:29;;;;;;;28.90;15.98;;;7.30;99.90;;;;;;4992002;28;20391;-77
2021/12/29 05:09:39;;;;;;;33.70;16.52;;;7.20;99.90;;;;;;4992260;28;20038;-77
2021/12/29 05:12:05;;;;;;;35.80;17.08;;;7.20;99.90;;;;;;4992291;28;20124;-79
2021/12/29 05:14:31;;;;;;;32.72;16.30;;;7.30;99.90;;;;;;4992744;28;20037;-77
2021/12/29 05:16:56;;;;;;;33.90;17.40;;;7.30;99.90;;;;;;4995350;28;20379;-77
2021/12/29 05:19:22;;;;;;;31.20;17.17;;;7.30;99.90;;;;;;4995007;28;20505;-77
2021/12/29 05:21:48;;;;;;;29.17;16.45;;;7.30;99.90;;;;;;4995055;28;20048;-82
2021/12/29 05:24:13;;;;;;;33.63;18.02;;;7.30;99.90;;;;;;4995833;28;20042;-76
2021/12/29 05:26:39;;;;;;;32.80;18.00;;;7.10;99.90;;;;;;4995629;28;20050;-80
2021/12/29 05:29:05;;;;;;;36.60;17.67;;;7.00;99.90;;;;;;4994700;28;20041;-79
2021/12/29 05:31:31;;;;;;;36.17;16.90;;;7.20;99.90;;;;;;4978953;28;20053;-82
2021/12/29 05:33:56;;;;;;;28.75;17.27;;;7.10;99.90;;;;;;4995766;28;20037;-78
2021/12/29 05:36:22;;;;;;;35.88;17.92;;;7.20;99.90;;;;;;4995108;28;20125;-76
2021/12/29 05:38:48;;;;;;;33.70;16.42;;;7.20;99.90;;;;;;4995646;28;20059;-77
2021/12/29 05:41:14;;;;;;;32.63;16.85;;;7.20;99.90;;;;;;5012744;28;20486;-81
2021/12/29 05:43:40;;;;;;;28.77;15.57;;;7.00;99.90;;;;;;5012384;28;20038;-79
2021/12/29 05:46:05;;;;;;;27.20;15.05;;;7.20;99.90;;;;;;5013330;28;20060;-80
2021/12/29 05:48:31;;;;;;;34.25;16.55;;;7.20;99.90;;;;;;4994501;28;20042;-76
2021/12/29 05:50:57;;;;;;;32.28;16.80;;;7.20;99.90;;;;;;4994175;28;20050;-76
2021/12/29 05:53:22;;;;;;;35.55;16.20;;;7.20;99.90;;;;;;4995446;28;20044;-77
2021/12/29 05:55:48;;;;;;;30.48;16.00;;;7.20;99.90;;;;;;4995867;28;20128;-76
2021/12/29 05:58:13;;;;;;;30.95;15.00;;;7.20;99.90;;;;;;4978551;28;20141;-76
2021/12/29 06:00:43;;;;;;;32.83;16.77;;;7.10;99.90;;;;;;4995153;28;20081;-82
2021/12/29 06:03:09;;;;;;;27.20;15.60;;;7.10;99.90;;;;;;4978984;28;20474;-80
2021/12/29 06:05:35;;;;;;;32.72;14.80;;;9.10;99.90;;;;;;4978157;28;20034;-81
2021/12/29 06:08:01;;;;;;;37.70;15.80;;;6.90;99.90;;;;;;4978324;28;20038;-76
2021/12/29 06:10:26;;;;;;;35.85;17.60;;;7.10;99.90;;;;;;4978988;28;20060;-78
2021/12/29 06:12:52;;;;;;;44.17;17.50;;;7.20;99.90;;;;;;4977970;28;20038;-81
2021/12/29 06:15:17;;;;;;;36.50;17.23;;;7.10;99.90;;;;;;4978693;28;20046;-77
2021/12/29 06:17:43;;;;;;;45.78;17.95;;;7.10;99.90;;;;;;4978199;28;20037;-81
2021/12/29 06:20:11;;;;;;;46.58;16.17;;;6.80;99.90;;;;;;4993832;28;20885;-76
2021/12/29 06:22:37;;;;;;;51.33;17.27;;;7.20;99.90;;;;;;4994244;28;20524;-81
2021/12/29 06:25:07;;;;;;;55.22;18.38;;;7.10;99.90;;;;;;4978275;28;20100;-78
2021/12/29 06:27:33;;;;;;;47.58;18.13;;;7.20;99.90;;;;;;4994464;28;20061;-77
2021/12/29 06:29:59;;;;;;;60.65;18.42;;;7.10;99.90;;;;;;4978736;28;20033;-81
2021/12/29 06:32:26;;;;;;;53.83;18.30;;;7.10;99.90;;;;;;4977121;28;20045;-81
2021/12/29 06:34:51;;;;;;;59.33;17.80;;;7.10;99.90;;;;;;4978506;28;20034;-76
2021/12/29 06:37:17;;;;;;;62.00;17.65;;;7.10;99.90;;;;;;4978361;28;20076;-77
2021/12/29 06:39:45;;;;;;;55.22;17.67;;;7.20;99.90;;;;;;4977960;28;20128;-76
2021/12/29 06:42:12;;;;;;;45.65;16.75;;;7.10;99.90;;;;;;4993844;28;20046;-76
2021/12/29 06:44:38;;;;;;;68.00;19.52;;;7.20;99.90;;;;;;4977919;28;20386;-76
2021/12/29 06:47:05;;;;;;;65.53;18.83;;;7.20;99.90;;;;;;4993908;28;20046;-77
2021/12/29 06:49:31;;;;;;;60.25;18.30;;;7.60;99.90;;;;;;4977677;28;20049;-76
2021/12/29 06:51:56;;;;;;;57.03;17.15;;;7.10;99.90;;;;;;4977945;28;20041;-81
2021/12/29 06:54:22;;;;;;;58.13;16.33;;;7.20;99.90;;;;;;4993517;28;20080;-77
2021/12/29 06:56:47;;;;;;;52.03;15.63;;;7.20;99.90;;;;;;4994761;28;20134;-76
2021/12/29 06:59:13;;;;;;;61.47;18.33;;;7.00;99.90;;;;;;4977686;28;20402;-81
2021/12/29 07:01:39;;;;;;;70.25;17.88;;;7.10;99.90;;;;;;4992763;28;20042;-75
2021/12/29 07:04:04;;;;;;;49.75;16.48;;;7.20;99.90;;;;;;5011618;28;20469;-75
2021/12/29 07:06:30;;;;;;;52.03;16.23;;;8.30;99.90;;;;;;4993525;28;20048;-81
2021/12/29 07:08:56;;;;;;;66.07;17.65;;;7.20;99.90;;;;;;4993700;28;20034;-76
2021/12/29 07:11:21;;;;;;;58.95;17.60;;;7.20;99.90;;;;;;5011380;28;20045;-79
2021/12/29 07:13:49;;;;;;;55.78;17.85;;;7.20;99.90;;;;;;4994577;28;20075;-81
2021/12/29 07:16:14;;;;;;;58.13;17.65;;;7.20;99.90;;;;;;5010842;28;20053;-79
2021/12/29 07:18:40;;;;;;;41.25;16.55;;;7.20;99.90;;;;;;4993669;28;20050;-81
2021/12/29 07:21:23;;;;;;;52.78;15.10;;;7.10;99.90;;;;;;4897687;28;10000485;-78
2021/12/29 07:23:50;;;;;;;38.30;14.07;;;7.20;99.90;;;;;;4977981;28;20247;-76
2021/12/29 07:26:15;;;;;;;66.43;17.33;;;7.20;99.90;;;;;;4992456;28;20527;-77
2021/12/29 07:28:41;;;;;;;35.58;14.07;;;7.20;99.90;;;;;;5002913;28;20176;-77
2021/12/29 07:31:06;;;;;;;38.08;13.48;;;7.20;99.90;;;;;;4998050;28;20046;-77
2021/12/29 07:33:35;;;;;;;29.77;12.85;;;7.20;99.90;;;;;;4997974;28;20137;-77
2021/12/29 07:36:01;;;;;;;25.02;12.55;;;7.20;99.90;;;;;;5014366;28;20046;-78
2021/12/29 07:38:26;;;;;;;32.08;12.77;;;7.20;99.90;;;;;;4998129;28;20053;-78
2021/12/29 07:40:52;;;;;;;33.40;13.40;;;7.10;99.90;;;;;;4981946;28;20445;-77
2021/12/29 07:43:19;;;;;;;31.52;13.55;;;7.20;99.90;;;;;;5021470;28;20077;-77
2021/12/29 07:45:44;;;;;;;48.47;15.32;;;7.20;99.90;;;;;;4998561;28;20482;-79
2021/12/29 07:48:10;;;;;;;36.03;14.27;;;7.10;99.90;;;;;;5019101;28;20076;-81
2021/12/29 07:50:37;;;;;;;37.08;14.27;;;7.10;99.90;;;;;;5016373;28;20745;-77
2021/12/29 07:53:04;;;;;;;39.63;14.82;;;7.20;99.90;;;;;;4998360;28;20424;-77
2021/12/29 07:55:29;;;;;;;55.75;16.13;;;7.20;99.90;;;;;;5015697;28;20152;-78
2021/12/29 07:57:57;;;;;;;53.85;16.88;;;7.20;99.90;;;;;;5008947;28;20034;-80
2021/12/29 08:00:23;;;;;;;48.85;17.50;;;7.20;99.90;;;;;;4999916;28;20079;-77
2021/12/29 08:02:50;;;;;;;50.70;16.30;;;7.10;99.90;;;;;;4997408;28;20042;-78
2021/12/29 08:05:16;;;;;;;44.63;16.08;;;7.10;99.90;;;;;;4999849;28;20046;-78
2021/12/29 08:07:42;;;;;;;54.55;17.92;;;7.10;99.90;;;;;;4995979;28;20049;-80
2021/12/29 08:10:08;;;;;;;53.28;16.63;;;7.20;99.90;;;;;;4999741;28;20046;-80
2021/12/29 08:12:34;;;;;;;63.20;17.52;;;7.20;99.90;;;;;;4996561;28;20149;-81
2021/12/29 08:14:59;;;;;;;52.70;16.38;;;7.20;99.90;;;;;;5007311;28;20089;-79
2021/12/29 08:17:25;;;;;;;52.63;15.60;;;7.20;99.90;;;;;;5002534;28;20044;-75
2021/12/29 08:19:51;;;;;;;57.50;15.90;;;7.20;99.90;;;;;;4980447;28;20195;-79
2021/12/29 08:22:17;;;;;;;60.50;16.05;;;7.20;99.90;;;;;;4998317;28;20058;-79
2021/12/29 08:24:44;;;;;;;54.40;16.33;;;7.30;99.90;;;;;;5020313;28;20053;-80
2021/12/29 08:27:10;;;;;;;48.55;14.93;;;7.20;99.90;;;;;;4986913;28;20564;-80
2021/12/29 08:29:36;;;;;;;78.95;19.77;;;7.30;99.90;;;;;;5000953;28;20041;-80
2021/12/29 08:32:02;;;;;;;64.93;15.48;;;7.20;99.90;;;;;;4997089;28;20045;-79
2021/12/29 08:34:27;;;;;;;73.18;16.65;;;7.30;99.90;;;;;;4996889;28;20449;-82
2021/12/29 08:36:53;;;;;;;59.17;15.48;;;8.40;99.90;;;;;;4990875;28;20053;-80
2021/12/29 08:39:19;;;;;;;36.53;13.82;;;7.20;99.90;;;;;;4981887;28;20046;-81
2021/12/29 08:41:49;;;;;;;72.13;14.10;;;7.20;99.90;;;;;;4976636;28;20108;-81
2021/12/29 08:44:15;;;;;;;98.97;18.30;;;7.30;99.90;;;;;;4980687;28;20034;-79
2021/12/29 08:46:41;;;;;;;54.05;13.82;;;7.20;99.90;;;;;;4976352;28;20052;-80
2021/12/29 08:49:07;;;;;;;96.60;16.08;;;8.80;99.90;;;;;;4977726;28;20065;-79
2021/12/29 08:51:33;;;;;;;93.57;16.40;;;7.30;99.90;;;;;;4993735;28;20049;-80
2021/12/29 08:53:59;;;;;;;88.30;17.20;;;7.20;99.90;;;;;;4993796;28;20057;-81
2021/12/29 08:56:26;;;;;;;102.97;14.90;;;7.20;99.90;;;;;;4977841;28;20037;-77
2021/12/29 08:58:52;;;;;;;80.60;16.20;;;7.30;99.90;;;;;;4969546;28;20038;-81
2021/12/29 09:01:20;;;;;;;74.20;12.82;;;7.30;99.90;;;;;;4993503;28;20532;-78
2021/12/29 09:03:48;;;;;;;89.13;12.95;;;7.30;99.90;;;;;;5009722;28;20517;-80
2021/12/29 09:06:15;;;;;;;113.28;17.08;;;7.30;99.90;;;;;;4993412;28;20042;-78
2021/12/29 09:08:41;;;;;;;85.70;13.52;;;7.30;99.90;;;;;;5024968;28;20133;-78
2021/12/29 09:11:08;;;;;;;97.40;13.30;;;7.30;99.90;;;;;;4993683;28;20480;-81
2021/12/29 09:13:34;;;;;;;130.02;15.25;;;7.30;99.90;;;;;;4994062;28;20054;-80
2021/12/29 09:16:00;;;;;;;177.80;18.58;;;7.30;99.90;;;;;;4979175;28;20056;-82
2021/12/29 09:18:28;;;;;;;122.15;15.18;;;7.30;99.90;;;;;;4974783;28;20050;-76
2021/12/29 09:20:56;;;;;;;96.38;15.07;;;7.30;99.90;;;;;;5020511;28;20050;-77
2021/12/29 09:23:22;;;;;;;98.00;14.02;;;7.30;99.90;;;;;;4978718;28;20478;-79
2021/12/29 09:25:48;;;;;;;100.53;14.32;;;7.40;99.90;;;;;;4974298;28;20058;-77
2021/12/29 09:28:16;;;;;;;55.80;12.75;;;5.90;99.90;;;;;;4989872;28;20153;-79
2021/12/29 09:30:44;;;;;;;52.67;11.88;;;7.30;99.90;;;;;;4974995;28;20046;-84
2021/12/29 09:33:11;;;;;;;34.17;10.73;;;9.10;99.90;;;;;;4976189;28;20141;-83
2021/12/29 09:35:37;;;;;;;31.88;11.00;;;7.40;99.90;;;;;;4982923;28;20047;-79
2021/12/29 09:38:05;;;;;;;33.47;10.93;;;7.20;99.90;;;;;;5002009;28;20045;-78
2021/12/29 09:40:31;;;;;;;29.05;11.65;;;7.40;99.90;;;;;;5025164;28;20047;-83
2021/12/29 09:42:57;;;;;;;34.25;11.65;;;7.00;99.90;;;;;;4992141;28;20042;-83
2021/12/29 09:45:24;;;;;;;27.90;9.82;;;7.30;99.90;;;;;;4992191;28;20096;-84
2021/12/29 09:47:50;;;;;;;40.03;11.50;;;7.10;99.90;;;;;;4992450;28;20042;-78
2021/12/29 09:50:18;;;;;;;25.92;9.80;;;7.10;99.90;;;;;;4991907;28;20030;-84
2021/12/29 09:52:44;;;;;;;24.38;9.52;;;7.40;99.90;;;;;;4976597;28;20050;-84
2021/12/29 09:55:15;;;;;;;27.90;10.07;;;7.20;99.90;;;;;;4975799;28;20504;-84
2021/12/29 09:57:45;;;;;;;24.67;9.88;;;7.30;99.90;;;;;;4975149;28;20072;-85
2021/12/29 10:00:25;;;;;;;18.95;9.50;;;7.30;99.90;;;;;;4976340;28;20046;-82
2021/12/29 10:02:51;;;;;;;31.73;10.60;;;7.50;99.90;;;;;;4976096;28;20042;-78
2021/12/29 10:05:17;;;;;;;26.63;9.35;;;7.50;99.90;;;;;;4975072;28;20046;-79
2021/12/29 10:07:43;;;;;;;24.85;9.30;;;7.00;99.90;;;;;;4992114;28;20057;-79
2021/12/29 10:10:19;;;;;;;23.58;10.52;;;7.40;99.90;;;;;;4975742;28;20034;-83
2021/12/29 10:12:46;;;;;;;21.25;9.85;;;9.10;99.90;;;;;;4992090;28;20046;-84
2021/12/29 10:15:12;;;;;;;17.15;8.13;;;7.50;99.90;;;;;;4974610;28;20408;-84
2021/12/29 10:17:38;;;;;;;28.10;9.85;;;8.90;99.90;;;;;;4974779;28;20483;-83
2021/12/29 10:20:12;;;;;;;21.63;9.00;;;7.20;99.90;;;;;;4975960;28;20045;-81
2021/12/29 10:22:41;;;;;;;17.45;8.07;;;7.60;99.90;;;;;;4975454;28;20042;-84
2021/12/29 10:25:19;;;;;;;19.08;7.68;;;7.10;99.90;;;;;;4974315;28;20046;-81
2021/12/29 10:27:44;;;;;;;27.83;10.10;;;7.30;99.90;;;;;;4975702;28;20124;-84
2021/12/29 10:30:29;;;;;;;25.85;8.98;;;7.60;99.90;;;;;;4975918;28;20491;-83
2021/12/29 10:32:58;;;;;;;20.85;8.25;;;7.10;99.90;;;;;;4991276;28;20047;-83
2021/12/29 10:35:31;;;;;;;19.70;7.68;;;7.60;99.90;;;;;;4974869;28;20050;-79
2021/12/29 10:38:11;;;;;;;18.27;7.43;;;7.60;99.90;;;;;;4975277;28;20042;-84
2021/12/29 10:40:37;;;;;;;17.17;6.93;;;7.40;99.90;;;;;;4973994;28;20054;-84
2021/12/29 10:43:03;;;;;;;19.67;7.10;;;7.70;99.90;;;;;;4975503;28;20038;-85
2021/12/29 10:45:39;;;;;;;22.45;8.25;;;7.70;99.90;;;;;;4973885;28;20081;-85
2021/12/29 10:48:23;;;;;;;17.33;7.05;;;7.70;99.90;;;;;;5016647;28;20383;-85
2021/12/29 10:51:07;;;;;;;23.57;8.53;;;7.70;99.90;;;;;;4976031;28;20465;-81
2021/12/29 10:53:37;;;;;;;18.75;7.55;;;7.70;99.90;;;;;;4974531;28;20046;-85
2021/12/29 10:56:17;;;;;;;22.95;8.20;;;9.10;99.90;;;;;;4974403;28;20038;-85
2021/12/29 10:58:42;;;;;;;23.33;7.82;;;7.80;99.90;;;;;;4985017;28;20077;-84
2021/12/29 11:01:11;;;;;;;19.63;6.97;;;7.70;99.90;;;;;;4993309;28;20042;-83
2021/12/29 11:03:48;;;;;;;16.75;7.10;;;7.50;99.90;;;;;;4990994;28;20046;-77
2021/12/29 11:06:16;;;;;;;19.05;8.05;;;7.70;99.90;;;;;;4968583;28;20057;-82
2021/12/29 11:08:52;;;;;;;22.13;7.60;;;7.70;99.90;;;;;;4974077;28;20046;-78
2021/12/29 11:11:30;;;;;;;16.17;6.93;;;9.20;99.90;;;;;;4379450;28;10001822;-81
2021/12/29 11:14:21;;;;;;;33.65;7.80;;;7.70;99.90;;;;;;5007998;28;20512;-82
2021/12/29 11:16:58;;;;;;;25.92;7.18;;;7.70;99.90;;;;;;5030187;28;20053;-80
2021/12/29 11:19:24;;;;;;;17.30;7.78;;;7.70;99.90;;;;;;4988778;28;20070;-82
2021/12/29 11:21:50;;;;;;;25.40;8.07;;;7.70;99.90;;;;;;4987153;28;20050;-76
2021/12/29 11:24:23;;;;;;;28.10;8.30;;;7.70;99.90;;;;;;4986234;28;20047;-79
2021/12/29 11:26:49;;;;;;;25.65;8.02;;;7.70;99.90;;;;;;4972755;28;20165;-82
2021/12/29 11:29:18;;;;;;;22.58;8.70;;;7.70;99.90;;;;;;4987976;28;20082;-80
2021/12/29 11:31:45;;;;;;;19.13;7.50;;;7.70;99.90;;;;;;4989314;28;20045;-84
2021/12/29 11:34:25;;;;;;;27.83;8.82;;;7.70;99.90;;;;;;5001559;28;20042;-83
2021/12/29 11:37:10;;;;;;;25.58;9.02;;;7.70;99.90;;;;;;4973449;28;20046;-83
2021/12/29 11:39:43;;;;;;;;;;;7.70;99.90;;;;;;4969536;28;20446;-83
2021/12/29 11:42:10;;;;;;;27.95;8.55;;;9.10;99.90;;;;;;4992099;28;20400;-82
2021/12/29 11:44:36;;;;;;;37.33;9.50;;;7.40;99.90;;;;;;4973728;28;20097;-77
2021/12/29 11:47:03;;;;;;;24.20;8.07;;;7.70;99.90;;;;;;4995630;28;20076;-80
2021/12/29 11:49:29;;;;;;;25.63;8.15;;;7.70;99.90;;;;;;4970107;28;20035;-76
2021/12/29 11:52:03;;;;;;;23.10;8.30;;;7.70;99.90;;;;;;4991500;28;20054;-83
2021/12/29 11:54:34;;;;;;;31.40;8.07;;;7.80;99.90;;;;;;4977843;28;20067;-84
2021/12/29 11:57:13;;;;;;;27.95;7.63;;;7.80;99.90;;;;;;4994748;28;20296;-82
2021/12/29 11:59:39;;;;;;;33.05;6.22;;;7.80;99.90;;;;;;4977701;28;20545;-83
2021/12/29 12:02:06;;;;;;;21.25;6.03;;;7.80;99.90;;;;;;4990364;28;20042;-80
2021/12/29 12:04:32;;;;;;;31.35;6.28;;;7.80;99.90;;;;;;4624753;28;9999668;-82
2021/12/29 12:07:04;;;;;;;26.15;6.00;;;7.90;99.90;;;;;;4978599;28;20054;-76
2021/12/29 12:09:44;;;;;;;31.17;6.35;;;7.90;99.90;;;;;;4990374;28;20089;-78
2021/12/29 12:12:11;;;;;;;17.90;5.53;;;7.90;99.90;;;;;;4988803;28;20042;-79
2021/12/29 12:14:47;;;;;;;29.17;5.78;;;7.90;99.90;;;;;;4994079;28;20177;-81
2021/12/29 12:17:19;;;;;;;18.35;5.35;;;7.90;99.90;;;;;;4978432;28;20052;-79
2021/12/29 12:19:46;;;;;;;20.33;4.85;;;7.90;99.90;;;;;;4991325;28;20108;-81
2021/12/29 12:22:15;;;;;;;19.88;5.05;;;8.00;99.90;;;;;;5010643;28;20049;-79
2021/12/29 12:24:59;;;;;;;17.50;4.75;;;7.90;99.90;;;;;;4994837;28;20112;-82
2021/12/29 12:27:31;;;;;;;19.20;5.50;;;7.90;99.90;;;;;;4980596;28;20045;-81
2021/12/29 12:30:17;;;;;;;11.38;4.47;;;7.90;99.90;;;;;;4975795;28;20056;-80
2021/12/29 12:32:50;;;;;;;21.70;4.95;;;7.90;99.90;;;;;;4983634;28;20045;-80
2021/12/29 12:35:43;;;;;;;19.58;4.28;;;8.70;99.90;;;;;;5019647;28;20092;-81
2021/12/29 12:38:22;;;;;;;14.52;4.45;;;7.90;99.90;;;;;;4993281;28;20050;-80
2021/12/29 12:41:05;;;;;;;21.83;4.70;;;8.10;99.90;;;;;;4985317;28;20045;-81
2021/12/29 12:43:33;;;;;;;18.80;5.65;;;7.90;99.90;;;;;;4999033;28;20081;-80
2021/12/29 12:45:59;;;;;;;21.58;5.25;;;7.90;99.90;;;;;;5025770;28;20038;-81
2021/12/29 12:48:30;;;;;;;17.30;4.45;;;7.90;99.90;;;;;;5024381;28;20375;-81
2021/12/29 12:50:59;;;;;;;22.75;6.35;;;7.90;99.90;;;;;;4994654;28;20042;-82